Time;durP1;ratioP1;P1;durP2;ratioP2;P2;SDS_P1;SDS_P2;PMS_P1;PMS_P2;Temp;Humidity;BMP_temperature;BMP_pressure;BME280_temperature;BME280_humidity;BME280_pressure;Samples;Min_cycle;Max_cycle;Signal;HPM_P1;HPM_P2
2021/12/26 00:00:59;;;;;;;14.47;10.47;;;2.50;99.90;;;;;;5067373;28;20668;-61
2021/12/26 00:03:29;;;;;;;11.03;7.53;;;2.60;99.90;;;;;;5077355;28;20226;-61
2021/12/26 00:05:57;;;;;;;12.97;8.83;;;2.40;99.90;;;;;;5078880;28;20180;-62
2021/12/26 00:08:23;;;;;;;16.70;8.97;;;2.10;99.90;;;;;;5084555;28;20657;-62
2021/12/26 00:10:50;;;;;;;13.17;9.00;;;2.30;99.90;;;;;;5065150;28;20231;-62
2021/12/26 00:13:18;;;;;;;14.57;9.70;;;2.30;99.90;;;;;;5093288;28;20252;-62
2021/12/26 00:15:44;;;;;;;11.07;9.07;;;2.10;99.90;;;;;;5093721;28;20234;-61
2021/12/26 00:18:10;;;;;;;11.97;7.87;;;2.00;99.90;;;;;;5070789;28;20596;-62
2021/12/26 00:20:37;;;;;;;12.73;9.27;;;2.20;99.90;;;;;;5095113;28;20548;-64
2021/12/26 00:23:04;;;;;;;20.87;9.27;;;2.40;99.90;;;;;;5075725;28;20209;-63
2021/12/26 00:25:30;;;;;;;14.67;10.43;;;2.30;99.90;;;;;;5063727;28;20188;-62
2021/12/26 00:27:56;;;;;;;13.33;8.27;;;2.20;99.90;;;;;;5060225;28;20185;-61
2021/12/26 00:30:22;;;;;;;13.70;8.87;;;2.10;99.90;;;;;;5076873;28;20257;-61
2021/12/26 00:32:49;;;;;;;18.03;10.40;;;2.20;99.90;;;;;;5076679;28;20185;-61
2021/12/26 00:35:16;;;;;;;13.00;8.40;;;2.00;99.90;;;;;;5060542;28;20654;-62
2021/12/26 00:37:43;;;;;;;13.37;9.50;;;2.00;99.90;;;;;;5086222;28;20650;-61
2021/12/26 00:40:11;;;;;;;17.00;9.47;;;2.20;99.90;;;;;;5086684;28;20204;-61
2021/12/26 00:42:36;;;;;;;13.17;10.00;;;2.30;99.90;;;;;;5064914;28;20209;-62
2021/12/26 00:45:05;;;;;;;12.83;9.07;;;2.20;99.90;;;;;;5075495;28;20189;-62
2021/12/26 00:47:32;;;;;;;17.80;9.80;;;2.20;99.90;;;;;;5087380;28;20525;-62
2021/12/26 00:49:58;;;;;;;13.97;9.43;;;2.20;99.90;;;;;;5094355;28;20554;-61
2021/12/26 00:52:24;;;;;;;17.63;10.27;;;2.10;99.90;;;;;;5073901;28;20188;-62
2021/12/26 00:54:50;;;;;;;14.40;10.37;;;2.20;99.90;;;;;;5076519;28;20250;-62
2021/12/26 00:57:16;;;;;;;15.30;9.37;;;2.00;99.90;;;;;;5076027;28;20591;-61
2021/12/26 00:59:41;;;;;;;16.27;9.47;;;2.30;99.90;;;;;;5093469;28;20621;-62
2021/12/26 01:02:07;;;;;;;22.60;11.67;;;2.40;99.90;;;;;;5084607;28;20258;-61
2021/12/26 01:04:33;;;;;;;16.70;10.77;;;2.50;99.90;;;;;;5084130;28;20245;-62
2021/12/26 01:06:59;;;;;;;15.40;11.33;;;2.50;99.90;;;;;;5076030;28;20200;-62
2021/12/26 01:09:28;;;;;;;18.83;11.70;;;2.30;99.90;;;;;;5059671;28;20200;-63
2021/12/26 01:11:59;;;;;;;17.87;11.27;;;2.10;99.90;;;;;;5056986;28;20205;-62
2021/12/26 01:14:29;;;;;;;18.50;11.07;;;2.10;99.90;;;;;;5062749;28;20699;-61
2021/12/26 01:17:05;;;;;;;21.73;11.13;;;2.30;99.90;;;;;;5081542;28;20173;-62
2021/12/26 01:19:41;;;;;;;21.10;12.20;;;2.30;99.90;;;;;;5072534;28;20173;-62
2021/12/26 01:22:07;;;;;;;18.27;11.20;;;2.60;99.90;;;;;;5061940;28;20205;-62
2021/12/26 01:24:33;;;;;;;18.23;11.87;;;2.50;99.90;;;;;;5073979;28;20192;-62
2021/12/26 01:26:59;;;;;;;20.30;10.60;;;2.40;99.90;;;;;;5094268;28;20689;-61
2021/12/26 01:29:24;;;;;;;22.73;11.70;;;2.40;99.90;;;;;;5085072;28;20658;-62
2021/12/26 01:31:50;;;;;;;23.27;11.80;;;2.20;99.90;;;;;;5069309;28;20185;-62
2021/12/26 01:34:16;;;;;;;18.47;11.00;;;2.20;99.90;;;;;;5075625;28;20177;-61
2021/12/26 01:36:42;;;;;;;20.13;12.47;;;2.40;99.90;;;;;;5075667;28;20234;-62
2021/12/26 01:39:09;;;;;;;23.50;12.10;;;2.50;99.90;;;;;;5075845;28;20187;-61
2021/12/26 01:41:39;;;;;;;18.13;11.50;;;2.60;99.90;;;;;;5058581;28;20226;-61
2021/12/26 01:44:08;;;;;;;25.97;11.57;;;2.60;99.90;;;;;;5094321;28;20173;-62
2021/12/26 01:46:34;;;;;;;22.83;11.83;;;2.70;99.90;;;;;;5093768;28;20185;-62
2021/12/26 01:49:19;;;;;;;17.53;10.53;;;2.60;99.90;;;;;;5094158;28;20185;-61
2021/12/26 01:51:47;;;;;;;19.73;11.63;;;2.60;99.90;;;;;;5062824;28;20223;-63
2021/12/26 01:54:26;;;;;;;29.43;12.60;;;2.50;99.90;;;;;;5061116;28;20183;-61
2021/12/26 01:56:51;;;;;;;22.27;12.87;;;2.60;99.90;;;;;;5093755;28;20183;-62
2021/12/26 01:59:17;;;;;;;23.73;12.07;;;2.60;99.90;;;;;;5092413;28;20219;-62
2021/12/26 02:01:45;;;;;;;24.70;12.67;;;2.40;99.90;;;;;;5040040;28;20295;-62
2021/12/26 02:04:12;;;;;;;18.07;12.33;;;2.40;99.90;;;;;;5092605;28;20192;-62
2021/12/26 02:06:38;;;;;;;26.17;13.13;;;2.40;99.90;;;;;;5091175;28;20227;-62
2021/12/26 02:09:03;;;;;;;21.33;12.33;;;2.30;99.90;;;;;;5051445;28;20299;-64
2021/12/26 02:11:29;;;;;;;27.07;11.87;;;2.60;99.90;;;;;;5075750;28;20291;-62
2021/12/26 02:13:55;;;;;;;23.23;11.40;;;2.70;99.90;;;;;;5089376;28;20178;-62
2021/12/26 02:16:23;;;;;;;22.63;12.70;;;2.60;99.90;;;;;;5073780;28;20260;-62
2021/12/26 02:18:49;;;;;;;21.03;12.53;;;2.30;99.90;;;;;;5081666;28;20211;-62
2021/12/26 02:24:10;;;;;;;24.03;12.70;;;2.30;99.90;;;;;;5068496;28;20669;-62
2021/12/26 02:29:20;;;;;;;22.53;12.50;;;2.70;99.90;;;;;;5078228;28;20200;-62
2021/12/26 02:31:45;;;;;;;24.33;13.87;;;2.60;99.90;;;;;;5058868;28;20188;-62
2021/12/26 02:34:11;;;;;;;20.60;11.67;;;2.70;99.90;;;;;;5058201;28;20223;-60
2021/12/26 02:36:37;;;;;;;23.50;12.27;;;2.90;99.90;;;;;;5092542;28;20188;-62
2021/12/26 02:39:04;;;;;;;24.40;13.97;;;2.90;99.90;;;;;;5058053;28;20184;-62
2021/12/26 02:41:30;;;;;;;22.23;12.33;;;3.10;99.90;;;;;;5051812;28;20577;-63
2021/12/26 02:43:57;;;;;;;25.43;13.57;;;3.00;99.90;;;;;;5086727;28;20318;-62
2021/12/26 02:46:25;;;;;;;26.57;13.77;;;2.90;99.90;;;;;;5062344;28;20611;-62
2021/12/26 02:48:51;;;;;;;24.13;13.13;;;2.90;99.90;;;;;;5072309;28;20253;-63
2021/12/26 02:51:16;;;;;;;25.70;12.00;;;2.50;99.90;;;;;;5073110;28;20174;-62
2021/12/26 02:53:42;;;;;;;23.73;13.27;;;2.50;99.90;;;;;;5073293;28;20180;-62
2021/12/26 02:56:08;;;;;;;23.40;12.77;;;2.20;99.90;;;;;;5085868;28;20186;-63
2021/12/26 02:58:34;;;;;;;22.37;12.70;;;2.30;99.90;;;;;;5065798;28;20184;-62
2021/12/26 03:01:06;;;;;;;27.67;13.53;;;2.40;99.90;;;;;;5054769;28;20534;-62
2021/12/26 03:03:32;;;;;;;29.50;14.17;;;2.50;99.90;;;;;;5084681;28;20203;-62
2021/12/26 03:06:03;;;;;;;28.03;13.43;;;2.60;99.90;;;;;;5082911;28;20623;-61
2021/12/26 03:08:30;;;;;;;25.33;14.10;;;2.60;99.90;;;;;;5060220;28;20379;-63
2021/12/26 03:10:56;;;;;;;25.80;13.97;;;2.70;99.90;;;;;;5061452;28;20630;-63
2021/12/26 03:13:23;;;;;;;31.47;14.50;;;2.80;99.90;;;;;;5073288;28;20242;-64
2021/12/26 03:15:49;;;;;;;23.70;13.30;;;2.60;99.90;;;;;;5074240;28;20642;-62
2021/12/26 03:18:16;;;;;;;28.80;13.60;;;2.60;99.90;;;;;;5066458;28;20190;-62
2021/12/26 03:20:46;;;;;;;22.73;13.17;;;2.70;99.90;;;;;;5077219;28;20196;-63
2021/12/26 03:23:16;;;;;;;19.50;12.27;;;2.90;99.90;;;;;;5077228;28;20503;-60
2021/12/26 03:25:42;;;;;;;31.20;14.53;;;2.80;99.90;;;;;;5077446;28;20182;-62
2021/12/26 03:28:09;;;;;;;30.43;14.50;;;2.90;99.90;;;;;;5095955;28;20191;-62
2021/12/26 03:30:36;;;;;;;28.43;13.50;;;2.90;99.90;;;;;;5089870;28;20184;-62
2021/12/26 03:33:05;;;;;;;24.93;13.03;;;2.70;99.90;;;;;;5084268;28;20185;-62
2021/12/26 03:35:31;;;;;;;24.20;13.47;;;2.80;99.90;;;;;;5095545;28;20183;-62
2021/12/26 03:37:59;;;;;;;25.63;13.00;;;2.60;99.90;;;;;;5077763;28;20306;-62
2021/12/26 03:40:25;;;;;;;22.33;12.13;;;2.50;99.90;;;;;;5095137;28;20181;-62
2021/12/26 03:42:51;;;;;;;24.53;14.67;;;2.50;99.90;;;;;;5077544;28;20211;-62
2021/12/26 03:45:18;;;;;;;28.10;14.20;;;3.00;99.90;;;;;;5060919;28;20288;-60
2021/12/26 03:47:48;;;;;;;23.83;13.23;;;3.10;99.90;;;;;;5095498;28;20181;-59
2021/12/26 03:50:15;;;;;;;29.27;14.53;;;2.70;99.90;;;;;;5077422;28;20203;-60
2021/12/26 03:52:41;;;;;;;24.27;12.80;;;2.60;99.90;;;;;;5077123;28;20238;-61
2021/12/26 03:55:07;;;;;;;31.50;14.17;;;2.80;99.90;;;;;;5076826;28;20184;-62
2021/12/26 03:57:33;;;;;;;28.67;14.03;;;2.60;99.90;;;;;;5059829;28;20196;-61
2021/12/26 03:59:59;;;;;;;25.47;12.43;;;2.50;99.90;;;;;;5085096;28;20597;-62
2021/12/26 04:02:26;;;;;;;30.43;13.90;;;2.60;99.90;;;;;;5087668;28;20219;-61
2021/12/26 04:04:52;;;;;;;25.07;14.07;;;2.70;99.90;;;;;;5095556;28;20251;-61
2021/12/26 04:07:18;;;;;;;24.77;13.83;;;2.90;99.90;;;;;;5095544;28;20280;-62
2021/12/26 04:09:44;;;;;;;31.70;15.83;;;2.70;99.90;;;;;;5076387;28;20200;-62
2021/12/26 04:12:10;;;;;;;27.43;12.97;;;2.70;99.90;;;;;;5077534;28;20618;-62
2021/12/26 04:14:35;;;;;;;20.90;12.97;;;2.60;99.90;;;;;;5077165;28;20529;-63
2021/12/26 04:17:01;;;;;;;26.27;14.27;;;2.50;99.90;;;;;;5085843;28;20192;-62
2021/12/26 04:19:27;;;;;;;23.07;12.97;;;2.70;99.90;;;;;;5064760;28;20223;-62
2021/12/26 04:21:53;;;;;;;22.10;13.47;;;2.60;99.90;;;;;;5077240;28;20209;-65
2021/12/26 04:24:18;;;;;;;26.70;13.03;;;2.70;99.90;;;;;;5075754;28;20264;-62
2021/12/26 04:26:44;;;;;;;24.63;13.43;;;2.60;99.90;;;;;;5082296;28;20225;-62
2021/12/26 04:29:10;;;;;;;21.67;13.57;;;2.40;99.90;;;;;;5082171;28;20234;-62
2021/12/26 04:31:37;;;;;;;26.73;14.20;;;2.30;99.90;;;;;;5063921;28;20193;-62
2021/12/26 04:34:03;;;;;;;24.47;12.80;;;2.60;99.90;;;;;;5074264;28;20575;-63
2021/12/26 04:36:29;;;;;;;23.30;14.00;;;2.60;99.90;;;;;;5070371;28;20180;-62
2021/12/26 04:38:55;;;;;;;25.97;14.83;;;2.60;99.90;;;;;;5040979;28;20185;-62
2021/12/26 04:41:20;;;;;;;26.47;13.83;;;2.60;99.90;;;;;;5075569;28;20263;-62
2021/12/26 04:43:46;;;;;;;26.67;14.17;;;2.60;99.90;;;;;;5055342;28;20197;-64
2021/12/26 04:46:12;;;;;;;26.30;13.13;;;2.90;99.90;;;;;;5059458;28;20220;-61
2021/12/26 04:48:41;;;;;;;28.40;14.40;;;2.90;99.90;;;;;;5050425;28;20181;-61
2021/12/26 04:51:10;;;;;;;23.13;12.50;;;2.80;99.90;;;;;;5065861;28;20177;-61
2021/12/26 04:53:37;;;;;;;23.33;14.27;;;3.00;99.90;;;;;;5075892;28;20189;-62
2021/12/26 04:56:03;;;;;;;26.63;13.87;;;3.00;99.90;;;;;;5094651;28;20176;-62
2021/12/26 04:58:29;;;;;;;25.03;14.43;;;3.00;99.90;;;;;;5076119;28;20189;-63
2021/12/26 05:00:55;;;;;;;21.37;13.77;;;3.00;99.90;;;;;;5075437;28;20194;-62
2021/12/26 05:03:21;;;;;;;24.47;14.50;;;3.10;99.90;;;;;;5076159;28;20217;-62
2021/12/26 05:05:47;;;;;;;26.13;13.93;;;3.20;99.90;;;;;;5093858;28;20177;-64
2021/12/26 05:08:13;;;;;;;21.47;12.80;;;3.10;99.90;;;;;;5073424;28;20276;-61
2021/12/26 05:10:39;;;;;;;24.87;14.33;;;3.20;99.90;;;;;;5086841;28;20280;-61
2021/12/26 05:13:06;;;;;;;25.27;13.73;;;3.30;99.90;;;;;;5089101;28;20641;-62
2021/12/26 05:15:32;;;;;;;24.87;13.27;;;3.40;99.90;;;;;;5093649;28;20189;-61
2021/12/26 05:17:58;;;;;;;20.50;12.63;;;3.50;99.90;;;;;;5082536;28;20269;-62
2021/12/26 05:20:26;;;;;;;29.63;14.67;;;3.50;99.90;;;;;;5086708;28;20211;-63
2021/12/26 05:22:53;;;;;;;21.30;13.90;;;3.20;99.90;;;;;;5093699;28;20200;-62
2021/12/26 05:25:20;;;;;;;25.13;13.53;;;2.90;99.90;;;;;;5081669;28;20257;-62
2021/12/26 05:27:47;;;;;;;21.83;14.27;;;3.10;99.90;;;;;;5075051;28;20253;-62
2021/12/26 05:30:19;;;;;;;19.57;13.87;;;3.20;99.90;;;;;;5058701;28;20322;-62
2021/12/26 05:32:45;;;;;;;18.93;12.13;;;3.20;99.90;;;;;;5075537;28;20180;-62
2021/12/26 05:35:13;;;;;;;19.87;12.33;;;3.30;99.90;;;;;;5075741;28;20181;-61
2021/12/26 05:37:39;;;;;;;23.73;14.63;;;3.30;99.90;;;;;;5075814;28;20191;-62
2021/12/26 05:40:07;;;;;;;25.03;15.37;;;3.10;99.90;;;;;;5093679;28;20184;-62
2021/12/26 05:42:34;;;;;;;22.70;13.87;;;3.00;99.90;;;;;;5091793;28;20230;-63
2021/12/26 05:45:00;;;;;;;21.47;12.70;;;3.10;99.90;;;;;;5074454;28;20192;-61
2021/12/26 05:47:27;;;;;;;25.47;14.00;;;3.00;99.90;;;;;;5075444;28;20177;-62
2021/12/26 05:49:53;;;;;;;21.10;12.93;;;2.90;99.90;;;;;;5093610;28;20185;-62
2021/12/26 05:52:19;;;;;;;18.70;11.63;;;3.00;99.90;;;;;;5093571;28;20207;-62
2021/12/26 05:54:46;;;;;;;22.33;12.23;;;3.20;99.90;;;;;;5074739;28;20176;-62
2021/12/26 05:57:12;;;;;;;23.90;15.07;;;3.20;99.90;;;;;;5072359;28;20185;-61
2021/12/26 05:59:38;;;;;;;22.83;13.10;;;3.00;99.90;;;;;;5070192;28;20275;-62
2021/12/26 06:02:04;;;;;;;22.87;13.67;;;3.00;99.90;;;;;;5046516;28;20273;-61
2021/12/26 06:04:30;;;;;;;19.03;11.70;;;3.00;99.90;;;;;;5063996;28;20195;-62
2021/12/26 06:06:56;;;;;;;19.57;12.87;;;3.10;99.90;;;;;;5071284;28;20189;-61
2021/12/26 06:09:22;;;;;;;27.73;14.90;;;3.40;99.90;;;;;;5055819;28;20565;-61
2021/12/26 06:11:47;;;;;;;19.47;12.37;;;3.50;99.90;;;;;;5067593;28;20253;-62
2021/12/26 06:14:13;;;;;;;24.37;13.83;;;3.60;99.90;;;;;;5065719;28;20191;-61
2021/12/26 06:16:39;;;;;;;24.10;13.40;;;3.70;99.90;;;;;;5085052;28;20549;-62
2021/12/26 06:19:05;;;;;;;22.97;12.87;;;3.60;99.90;;;;;;5070282;28;20227;-62
2021/12/26 06:21:31;;;;;;;19.87;12.03;;;3.50;99.90;;;;;;5090756;28;21719;-62
2021/12/26 06:23:56;;;;;;;21.10;11.90;;;3.50;99.90;;;;;;5074483;28;20191;-62
2021/12/26 06:26:24;;;;;;;24.33;14.10;;;3.50;99.90;;;;;;5075063;28;20657;-62
2021/12/26 06:28:50;;;;;;;24.30;14.30;;;3.50;99.90;;;;;;5092812;28;20184;-62
2021/12/26 06:31:16;;;;;;;24.47;16.03;;;3.50;99.90;;;;;;5082989;28;20772;-62
2021/12/26 06:33:43;;;;;;;23.33;14.37;;;3.60;99.90;;;;;;5074069;28;20188;-62
2021/12/26 06:36:09;;;;;;;22.63;14.40;;;3.50;99.90;;;;;;5064036;28;20630;-62
2021/12/26 06:38:38;;;;;;;24.07;13.60;;;3.50;99.90;;;;;;5072544;28;20265;-62
2021/12/26 06:41:06;;;;;;;20.17;13.37;;;3.60;99.90;;;;;;5078154;28;20185;-61
2021/12/26 06:43:33;;;;;;;26.00;14.07;;;3.70;99.90;;;;;;5066609;28;20202;-62
2021/12/26 06:45:59;;;;;;;25.17;15.00;;;3.80;99.90;;;;;;5092702;28;20180;-62
2021/12/26 06:48:24;;;;;;;24.03;13.33;;;3.70;99.90;;;;;;5073433;28;20173;-62
2021/12/26 06:50:52;;;;;;;26.20;14.47;;;3.50;99.90;;;;;;5074941;28;20619;-62
2021/12/26 06:53:18;;;;;;;23.83;14.30;;;3.30;99.90;;;;;;5089709;28;20182;-61
2021/12/26 06:55:45;;;;;;;21.10;13.53;;;3.40;99.90;;;;;;5072807;28;20186;-62
2021/12/26 06:58:12;;;;;;;23.23;13.70;;;3.50;99.90;;;;;;5079006;28;20195;-62
2021/12/26 07:00:38;;;;;;;28.10;15.47;;;3.60;99.90;;;;;;5068242;28;20250;-61
2021/12/26 07:03:04;;;;;;;22.90;13.87;;;3.60;99.90;;;;;;5096625;28;20253;-62
2021/12/26 07:05:30;;;;;;;23.70;13.60;;;3.60;99.90;;;;;;5096726;28;20189;-62
2021/12/26 07:07:56;;;;;;;20.60;13.57;;;3.50;99.90;;;;;;5061671;28;20180;-61
2021/12/26 07:10:21;;;;;;;19.80;12.10;;;3.50;99.90;;;;;;5092333;28;20185;-62
2021/12/26 07:12:48;;;;;;;21.90;13.27;;;3.60;99.90;;;;;;5060175;28;20196;-61
2021/12/26 07:15:14;;;;;;;28.40;15.37;;;3.40;99.90;;;;;;5096576;28;20669;-61
2021/12/26 07:17:41;;;;;;;25.73;13.57;;;3.40;99.90;;;;;;5095589;28;20664;-62
2021/12/26 07:20:09;;;;;;;23.27;14.67;;;3.40;99.90;;;;;;5073086;28;20247;-62
2021/12/26 07:22:36;;;;;;;23.73;14.00;;;3.60;99.90;;;;;;5042126;28;20212;-62
2021/12/26 07:25:02;;;;;;;26.73;16.15;;;3.70;99.90;;;;;;5041678;28;20430;-60
2021/12/26 07:27:28;;;;;;;23.80;14.53;;;3.40;99.90;;;;;;5077205;28;20177;-61
2021/12/26 07:29:54;;;;;;;23.33;13.70;;;3.10;99.90;;;;;;5093829;28;20567;-65
2021/12/26 07:32:19;;;;;;;18.10;12.53;;;3.10;99.90;;;;;;5074091;28;20592;-60
2021/12/26 07:34:45;;;;;;;22.03;13.50;;;3.40;99.90;;;;;;5089379;28;20191;-62
2021/12/26 07:37:11;;;;;;;27.73;14.33;;;3.30;99.90;;;;;;5096188;28;20216;-62
2021/12/26 07:39:37;;;;;;;24.50;13.87;;;3.20;99.90;;;;;;5077161;28;20187;-62
2021/12/26 07:42:03;;;;;;;21.77;14.23;;;3.20;99.90;;;;;;5095946;28;20661;-61
2021/12/26 07:44:29;;;;;;;22.77;13.27;;;3.50;99.90;;;;;;5074504;28;20584;-61
2021/12/26 07:46:55;;;;;;;26.03;13.80;;;3.70;99.90;;;;;;5090259;28;20216;-61
2021/12/26 07:49:22;;;;;;;32.83;15.37;;;3.60;99.90;;;;;;5065195;28;20196;-62
2021/12/26 07:51:49;;;;;;;24.30;14.17;;;3.50;99.90;;;;;;5076424;28;20243;-61
2021/12/26 07:54:16;;;;;;;23.90;13.70;;;3.40;99.90;;;;;;5049288;28;20188;-64
2021/12/26 07:56:44;;;;;;;19.93;12.77;;;3.40;99.90;;;;;;5077655;28;20200;-65
2021/12/26 07:59:11;;;;;;;22.10;14.03;;;3.20;99.90;;;;;;5069039;28;20291;-66
2021/12/26 08:01:37;;;;;;;22.87;13.73;;;3.30;99.90;;;;;;5081117;28;20678;-66
2021/12/26 08:04:05;;;;;;;25.77;15.30;;;3.30;99.90;;;;;;5070578;28;20192;-63
2021/12/26 08:06:32;;;;;;;26.67;14.33;;;3.10;99.90;;;;;;5066150;28;20283;-62
2021/12/26 08:08:58;;;;;;;25.63;15.07;;;2.90;99.90;;;;;;5082787;28;20198;-62
2021/12/26 08:11:24;;;;;;;32.03;15.10;;;2.90;99.90;;;;;;5052995;28;20185;-61
2021/12/26 08:13:49;;;;;;;31.13;15.50;;;3.30;99.90;;;;;;5089386;28;20229;-63
2021/12/26 08:16:16;;;;;;;21.43;14.57;;;3.50;99.90;;;;;;5073977;28;20282;-61
2021/12/26 08:18:42;;;;;;;26.50;16.30;;;3.70;99.90;;;;;;5087759;28;20621;-61
2021/12/26 08:21:08;;;;;;;26.27;14.60;;;3.80;99.90;;;;;;5059377;28;20200;-60
2021/12/26 08:23:34;;;;;;;29.87;16.73;;;3.40;99.90;;;;;;5093916;28;20271;-61
2021/12/26 08:26:00;;;;;;;24.40;15.13;;;3.00;99.90;;;;;;5057331;28;20193;-62
2021/12/26 08:28:26;;;;;;;29.33;16.23;;;3.30;99.90;;;;;;5057615;28;20185;-62
2021/12/26 08:30:55;;;;;;;23.97;15.37;;;3.30;99.90;;;;;;5074656;28;20173;-61
2021/12/26 08:33:21;;;;;;;23.50;14.50;;;3.40;99.90;;;;;;5057498;28;20273;-63
2021/12/26 08:35:48;;;;;;;29.63;15.67;;;3.60;99.90;;;;;;5087651;28;20268;-60
2021/12/26 08:38:19;;;;;;;28.40;16.23;;;3.50;99.90;;;;;;5082775;28;20188;-59
2021/12/26 08:40:50;;;;;;;27.80;14.67;;;3.30;99.90;;;;;;5088408;28;21039;-59
2021/12/26 08:43:16;;;;;;;28.43;16.27;;;3.10;99.90;;;;;;5074936;28;20213;-59
2021/12/26 08:45:42;;;;;;;23.80;14.97;;;3.20;99.90;;;;;;5085073;28;20678;-59
2021/12/26 08:48:08;;;;;;;23.20;14.10;;;3.20;99.90;;;;;;5060122;28;20220;-59
2021/12/26 08:50:34;;;;;;;24.90;15.37;;;3.20;99.90;;;;;;5057132;28;20584;-60
2021/12/26 08:53:00;;;;;;;24.87;15.37;;;3.30;99.90;;;;;;5059823;28;20212;-59
2021/12/26 08:55:26;;;;;;;25.53;15.20;;;3.50;99.90;;;;;;5085639;28;20188;-59
2021/12/26 08:57:53;;;;;;;24.97;13.67;;;3.60;99.90;;;;;;5091123;28;20173;-58
2021/12/26 09:00:21;;;;;;;27.43;15.70;;;3.80;99.90;;;;;;5080004;28;20180;-59
2021/12/26 09:02:47;;;;;;;25.13;15.47;;;3.90;99.90;;;;;;5094320;28;20723;-59
2021/12/26 09:05:13;;;;;;;32.20;16.50;;;3.80;99.90;;;;;;5094580;28;20192;-59
2021/12/26 09:07:40;;;;;;;26.07;15.17;;;4.00;99.90;;;;;;5076134;28;20177;-59
2021/12/26 09:10:07;;;;;;;22.23;14.23;;;4.00;99.90;;;;;;5094357;28;20231;-59
2021/12/26 09:12:33;;;;;;;31.63;14.57;;;4.10;99.90;;;;;;5085065;28;20192;-59
2021/12/26 09:14:59;;;;;;;30.33;16.83;;;4.30;99.90;;;;;;5092402;28;20185;-59
2021/12/26 09:17:25;;;;;;;25.90;15.23;;;4.10;99.90;;;;;;5093692;28;20180;-59
2021/12/26 09:19:51;;;;;;;25.50;14.90;;;4.10;99.90;;;;;;5055694;28;20197;-59
2021/12/26 09:22:17;;;;;;;26.63;14.27;;;4.10;99.90;;;;;;5073276;28;20211;-59
2021/12/26 09:24:45;;;;;;;27.00;15.93;;;3.70;99.90;;;;;;5078047;28;20196;-59
2021/12/26 09:27:12;;;;;;;25.83;16.30;;;3.60;99.90;;;;;;5059273;28;20180;-58
2021/12/26 09:29:38;;;;;;;26.83;14.97;;;3.60;99.90;;;;;;5094384;28;20172;-59
2021/12/26 09:32:05;;;;;;;34.30;15.83;;;3.50;99.90;;;;;;5056176;28;20628;-59
2021/12/26 09:34:33;;;;;;;29.17;16.20;;;3.40;99.90;;;;;;5072765;28;20213;-59
2021/12/26 09:37:00;;;;;;;32.67;17.60;;;3.40;99.90;;;;;;5093076;28;20184;-58
2021/12/26 09:39:26;;;;;;;31.37;16.20;;;3.40;99.90;;;;;;5074891;28;20708;-59
2021/12/26 09:41:52;;;;;;;23.73;16.00;;;3.30;99.90;;;;;;5080003;28;20300;-58
2021/12/26 09:44:20;;;;;;;24.57;14.80;;;3.50;99.90;;;;;;5074978;28;20185;-59
2021/12/26 09:46:45;;;;;;;26.60;14.80;;;3.40;99.90;;;;;;5074033;28;20216;-58
2021/12/26 09:49:11;;;;;;;24.93;15.47;;;3.20;99.90;;;;;;5093527;28;20673;-58
2021/12/26 09:51:37;;;;;;;28.93;16.63;;;3.20;99.90;;;;;;5075459;28;20184;-58
2021/12/26 09:54:05;;;;;;;26.93;15.83;;;3.40;99.90;;;;;;5075055;28;20540;-58
2021/12/26 09:56:31;;;;;;;28.67;18.83;;;3.40;99.90;;;;;;5075161;28;20555;-60
2021/12/26 09:59:01;;;;;;;27.17;16.47;;;3.50;99.90;;;;;;5058493;28;20184;-59
2021/12/26 10:01:39;;;;;;;27.33;16.87;;;3.80;99.90;;;;;;5072300;28;20177;-58
2021/12/26 10:04:21;;;;;;;31.93;17.93;;;4.00;99.90;;;;;;5087059;28;20187;-58
2021/12/26 10:06:50;;;;;;;30.43;19.80;;;3.90;99.90;;;;;;5092591;28;20626;-58
2021/12/26 10:09:17;;;;;;;28.73;17.40;;;4.20;99.90;;;;;;5093187;28;20188;-58
2021/12/26 10:11:50;;;;;;;29.17;17.00;;;4.40;99.90;;;;;;5075359;28;20196;-59
2021/12/26 10:14:18;;;;;;;38.63;19.90;;;4.50;99.90;;;;;;5075186;28;20176;-59
2021/12/26 10:16:47;;;;;;;31.47;18.43;;;4.70;99.90;;;;;;5093190;28;20267;-58
2021/12/26 10:19:13;;;;;;;28.30;17.50;;;4.70;99.90;;;;;;5075462;28;20179;-58
2021/12/26 10:21:45;;;;;;;28.13;15.40;;;4.70;99.90;;;;;;5062298;28;20204;-58
2021/12/26 10:24:13;;;;;;;24.93;15.43;;;4.80;99.90;;;;;;5092952;28;20185;-58
2021/12/26 10:26:41;;;;;;;32.00;17.07;;;4.90;99.90;;;;;;5085340;28;20227;-58
2021/12/26 10:29:10;;;;;;;27.50;17.87;;;5.00;99.90;;;;;;5083078;28;20227;-58
2021/12/26 10:31:41;;;;;;;26.07;17.77;;;5.10;99.90;;;;;;5075603;28;20184;-58
2021/12/26 10:34:06;;;;;;;31.83;16.67;;;5.20;99.90;;;;;;5072345;28;20181;-58
2021/12/26 10:36:32;;;;;;;26.73;15.80;;;5.30;99.90;;;;;;5084362;28;20530;-58
2021/12/26 10:39:09;;;;;;;25.87;16.00;;;5.30;99.90;;;;;;5074092;28;20184;-58
2021/12/26 10:41:47;;;;;;;27.50;15.87;;;5.30;99.90;;;;;;5070574;28;20208;-58
2021/12/26 10:44:19;;;;;;;31.37;16.70;;;5.30;99.90;;;;;;5074324;28;20181;-58
2021/12/26 10:46:54;;;;;;;24.27;14.93;;;5.20;99.90;;;;;;5073232;28;20608;-58
2021/12/26 10:49:26;;;;;;;27.20;15.37;;;4.90;99.90;;;;;;5090008;28;20254;-58
2021/12/26 10:51:52;;;;;;;28.30;17.00;;;5.30;99.90;;;;;;5092443;28;20874;-58
2021/12/26 10:54:25;;;;;;;32.23;16.73;;;5.40;99.90;;;;;;5092605;28;20214;-58
2021/12/26 10:57:10;;;;;;;27.70;17.77;;;5.80;99.90;;;;;;5092014;28;20669;-58
2021/12/26 10:59:37;;;;;;;26.50;14.80;;;5.80;99.90;;;;;;5092613;28;20181;-58
2021/12/26 11:02:03;;;;;;;27.57;18.10;;;5.50;99.90;;;;;;5042771;28;20700;-58
2021/12/26 11:04:29;;;;;;;34.47;20.60;;;5.30;99.90;;;;;;5082739;28;20249;-58
2021/12/26 11:07:10;;;;;;;33.03;20.03;;;5.50;99.90;;;;;;5074303;28;20196;-58
2021/12/26 11:09:36;;;;;;;28.23;17.57;;;5.60;99.90;;;;;;5066121;28;20545;-58
2021/12/26 11:12:09;;;;;;;30.67;16.83;;;5.70;99.90;;;;;;5073822;28;20283;-58
2021/12/26 11:15:00;;;;;;;33.23;15.87;;;5.70;99.90;;;;;;5089101;28;20271;-58
2021/12/26 11:17:42;;;;;;;34.23;17.17;;;5.80;99.90;;;;;;5078636;28;20189;-58
2021/12/26 11:20:09;;;;;;;29.87;17.43;;;5.80;99.90;;;;;;5073994;28;20200;-58
2021/12/26 11:22:34;;;;;;;28.67;17.50;;;5.90;99.90;;;;;;5091650;28;20760;-58
2021/12/26 11:25:00;;;;;;;30.60;16.03;;;5.90;99.90;;;;;;5057084;28;20193;-58
2021/12/26 11:27:27;;;;;;;27.93;17.00;;;5.90;99.90;;;;;;5049173;28;20204;-59
2021/12/26 11:29:53;;;;;;;29.87;15.60;;;6.00;99.90;;;;;;5088128;28;20634;-59
2021/12/26 11:32:21;;;;;;;27.43;15.67;;;6.10;99.90;;;;;;5086096;28;20585;-59
2021/12/26 11:34:48;;;;;;;27.40;16.77;;;6.10;99.90;;;;;;5081999;28;20213;-60
2021/12/26 11:37:15;;;;;;;27.57;15.57;;;6.20;99.90;;;;;;5091864;28;20180;-59
2021/12/26 11:39:43;;;;;;;28.80;16.63;;;6.20;99.90;;;;;;5073644;28;20546;-59
2021/12/26 11:42:36;;;;;;;27.87;15.73;;;6.40;99.90;;;;;;5080285;28;20196;-59
2021/12/26 11:45:27;;;;;;;27.63;16.07;;;6.50;99.90;;;;;;5092802;28;20185;-59
2021/12/26 11:48:23;;;;;;;30.57;16.70;;;6.70;99.90;;;;;;5095586;28;20173;-59
2021/12/26 11:51:13;;;;;;;21.87;13.70;;;6.70;99.90;;;;;;5080193;28;20213;-59
2021/12/26 11:53:47;;;;;;;24.27;14.63;;;6.40;99.90;;;;;;5096015;28;20184;-59
2021/12/26 11:56:42;;;;;;;25.07;15.30;;;6.50;99.90;;;;;;5089806;28;20188;-59
2021/12/26 11:59:23;;;;;;;26.20;16.47;;;6.90;99.90;;;;;;5069882;28;20204;-58
2021/12/26 12:01:49;;;;;;;26.70;15.27;;;6.90;99.90;;;;;;5094257;28;20235;-58
2021/12/26 12:04:21;;;;;;;24.10;15.63;;;7.10;99.90;;;;;;5091933;28;20209;-59
2021/12/26 12:06:49;;;;;;;26.50;14.60;;;7.00;99.90;;;;;;5091079;28;20177;-60
2021/12/26 12:09:35;;;;;;;35.30;20.60;;;7.00;99.90;;;;;;5071695;28;20287;-60
2021/12/26 12:12:15;;;;;;;29.80;18.70;;;7.00;99.90;;;;;;5095549;28;20192;-60
2021/12/26 12:14:54;;;;;;;26.17;15.73;;;7.00;99.90;;;;;;5095000;28;20184;-59
2021/12/26 12:17:29;;;;;;;24.87;15.03;;;7.10;99.90;;;;;;5086190;28;20189;-61
2021/12/26 12:20:16;;;;;;;28.27;18.23;;;7.20;99.90;;;;;;5049940;28;20180;-60
2021/12/26 12:23:09;;;;;;;22.90;14.27;;;6.90;99.90;;;;;;5091843;28;20898;-60
2021/12/26 12:25:41;;;;;;;24.87;14.53;;;7.00;99.90;;;;;;5092356;28;20181;-60
2021/12/26 12:28:13;;;;;;;20.70;13.10;;;6.90;99.90;;;;;;5090364;28;20173;-62
2021/12/26 12:30:42;;;;;;;30.77;17.00;;;7.10;99.90;;;;;;5073541;28;20536;-61
2021/12/26 12:33:18;;;;;;;35.80;20.87;;;6.70;99.90;;;;;;5071017;28;20276;-61
2021/12/26 12:35:54;;;;;;;26.73;14.87;;;6.40;99.90;;;;;;5057671;28;20264;-62
2021/12/26 12:38:24;;;;;;;28.37;16.20;;;6.30;99.90;;;;;;5091416;28;20188;-63
2021/12/26 12:40:50;;;;;;;26.07;17.07;;;6.70;99.90;;;;;;5057296;28;20189;-62
2021/12/26 12:43:19;;;;;;;27.27;14.57;;;7.00;99.90;;;;;;5074503;28;20227;-61
2021/12/26 12:45:54;;;;;;;23.67;13.80;;;7.10;99.90;;;;;;5094033;28;20183;-61
2021/12/26 12:48:22;;;;;;;21.13;14.37;;;7.00;99.90;;;;;;5088536;28;20177;-61